Time;durP1;ratioP1;P1;durP2;ratioP2;P2;SDS_P1;SDS_P2;PMS_P1;PMS_P2;Temp;Humidity;BMP_temperature;BMP_pressure;BME280_temperature;BME280_humidity;BME280_pressure;Samples;Min_cycle;Max_cycle;Signal;HPM_P1;HPM_P2
2022/04/16 00:00:52;;;;;;;15.10;13.40;;;;;;;11.31;57.87;102960.13;5073219;28;20047;-63
2022/04/16 00:03:17;;;;;;;16.00;14.02;;;;;;;11.23;58.10;102951.97;5073278;28;20029;-63
2022/04/16 00:05:44;;;;;;;16.20;13.75;;;;;;;11.25;57.64;102952.63;5075074;28;20029;-63
2022/04/16 00:08:09;;;;;;;16.38;13.32;;;;;;;11.22;57.76;102948.31;5087398;28;20028;-62
2022/04/16 00:10:37;;;;;;;14.60;13.10;;;;;;;11.29;57.55;102956.72;5091716;28;20032;-64
2022/04/16 00:13:02;;;;;;;15.23;13.30;;;;;;;11.26;57.70;102957.13;5093096;28;20360;-64
2022/04/16 00:15:28;;;;;;;15.52;13.88;;;;;;;11.22;57.57;102955.81;5090786;28;20043;-64
2022/04/16 00:17:55;;;;;;;18.80;14.48;;;;;;;11.27;57.50;102953.25;5084695;28;20036;-64
2022/04/16 00:20:21;;;;;;;14.35;12.85;;;;;;;11.28;57.43;102952.22;5073131;28;20033;-64
2022/04/16 00:22:46;;;;;;;16.33;12.55;;;;;;;11.28;57.11;102952.22;5072141;28;20070;-64
2022/04/16 00:25:13;;;;;;;18.23;13.77;;;;;;;11.22;57.57;102950.25;5073887;28;20742;-63
2022/04/16 00:27:39;;;;;;;15.13;13.55;;;;;;;11.22;57.84;102953.03;5089698;28;20027;-63
2022/04/16 00:30:05;;;;;;;14.93;13.02;;;;;;;11.25;57.56;102955.41;5092741;28;20024;-64
2022/04/16 00:32:30;;;;;;;14.80;13.32;;;;;;;11.25;57.75;102953.47;5093041;28;20433;-63
2022/04/16 00:34:55;;;;;;;16.10;13.80;;;;;;;11.19;57.36;102957.06;5091774;28;20062;-64
2022/04/16 00:37:23;;;;;;;15.38;13.70;;;;;;;11.16;57.85;102954.72;5091932;28;20024;-63
2022/04/16 00:39:48;;;;;;;19.15;14.40;;;;;;;11.12;57.89;102952.53;5092727;28;20475;-64
2022/04/16 00:42:20;;;;;;;15.30;13.70;;;;;;;11.19;57.79;102959.00;5091524;28;20071;-63
2022/04/16 00:44:45;;;;;;;16.85;14.05;;;;;;;11.13;57.76;102960.69;5091435;28;20016;-63
2022/04/16 00:47:12;;;;;;;16.58;13.70;;;;;;;11.08;58.20;102957.66;5092188;28;20375;-63
2022/04/16 00:49:38;;;;;;;16.65;13.75;;;;;;;11.08;58.15;102965.97;5091461;28;20353;-63
2022/04/16 00:52:08;;;;;;;17.05;14.10;;;;;;;11.11;58.28;102960.03;5092283;28;20054;-63
2022/04/16 00:54:34;;;;;;;16.73;14.63;;;;;;;11.03;58.28;102966.59;5092529;28;20114;-63
2022/04/16 00:57:05;;;;;;;19.67;14.73;;;;;;;11.07;58.43;102950.38;5091313;28;20146;-63
2022/04/16 00:59:30;;;;;;;16.17;14.18;;;;;;;11.06;58.17;102957.88;5091992;28;20048;-63
2022/04/16 01:01:55;;;;;;;16.65;14.35;;;;;;;10.99;58.12;102951.41;5091983;28;20053;-63
2022/04/16 01:04:20;;;;;;;17.00;14.93;;;;;;;10.99;58.60;102959.75;5089392;28;20085;-63
2022/04/16 01:06:48;;;;;;;17.38;14.40;;;;;;;10.98;58.62;102960.81;5091921;28;20050;-63
2022/04/16 01:09:14;;;;;;;17.30;14.63;;;;;;;11.01;58.39;102954.84;5072800;28;20035;-63
2022/04/16 01:11:39;;;;;;;18.42;15.27;;;;;;;10.94;58.68;102961.44;5082427;28;20036;-63
2022/04/16 01:14:05;;;;;;;18.92;15.20;;;;;;;11.00;58.56;102964.25;5076818;28;20119;-63
2022/04/16 01:16:31;;;;;;;19.67;15.40;;;;;;;10.94;58.65;102953.94;5081911;28;20043;-63
2022/04/16 01:18:57;;;;;;;17.15;15.30;;;;;;;10.89;58.81;102964.81;5089416;28;20082;-63
2022/04/16 01:21:23;;;;;;;19.23;15.77;;;;;;;10.91;58.70;102959.91;5088618;28;20078;-63
2022/04/16 01:23:48;;;;;;;19.92;15.32;;;;;;;10.91;58.73;102965.47;5072207;28;20029;-63
2022/04/16 01:26:14;;;;;;;18.50;15.95;;;;;;;10.90;58.75;102966.53;5071566;28;20111;-63
2022/04/16 01:28:43;;;;;;;17.13;15.05;;;;;;;10.93;58.46;102963.34;5074756;28;20476;-63
2022/04/16 01:31:08;;;;;;;20.23;16.30;;;;;;;10.89;58.68;102967.59;5090533;28;20103;-64
2022/04/16 01:33:34;;;;;;;20.02;16.52;;;;;;;10.90;58.74;102969.31;5086615;28;20032;-64
2022/04/16 01:35:59;;;;;;;18.05;15.55;;;;;;;10.92;58.98;102977.44;5091559;28;20070;-63
2022/04/16 01:38:25;;;;;;;21.63;16.30;;;;;;;10.90;58.72;102974.00;5090089;28;20027;-63
2022/04/16 01:40:56;;;;;;;19.90;16.42;;;;;;;10.83;58.49;102973.97;5071605;28;20439;-63
2022/04/16 01:43:22;;;;;;;21.45;17.38;;;;;;;10.81;59.16;102978.88;5071831;28;20413;-63
2022/04/16 01:45:50;;;;;;;18.42;16.52;;;;;;;10.80;59.09;102977.13;5070849;28;20039;-62
2022/04/16 01:48:17;;;;;;;19.73;17.17;;;;;;;10.76;59.28;102976.69;5081373;28;20036;-64
2022/04/16 01:50:42;;;;;;;22.13;17.92;;;;;;;10.70;59.47;102977.50;5090235;28;20044;-64
2022/04/16 01:53:10;;;;;;;19.40;17.13;;;;;;;10.74;59.38;102980.75;5090336;28;20062;-63
2022/04/16 01:55:36;;;;;;;20.17;17.27;;;;;;;10.70;59.35;102979.44;5091879;28;20036;-64
2022/04/16 01:58:03;;;;;;;18.30;16.40;;;;;;;10.67;59.31;102974.28;5073088;28;20024;-63
2022/04/16 02:00:29;;;;;;;20.02;16.50;;;;;;;10.61;59.81;102977.84;5070783;28;20048;-64
2022/04/16 02:02:54;;;;;;;19.90;17.50;;;;;;;10.62;59.64;102974.03;5072563;28;20021;-63
2022/04/16 02:05:22;;;;;;;19.45;17.23;;;;;;;10.56;59.80;102972.91;5075485;28;20028;-64
2022/04/16 02:07:49;;;;;;;21.85;17.40;;;;;;;10.58;59.82;102973.56;5079122;28;20081;-64
2022/04/16 02:10:16;;;;;;;21.23;18.13;;;;;;;10.55;59.91;102971.19;5091647;28;20097;-64
2022/04/16 02:12:42;;;;;;;25.77;18.52;;;;;;;10.52;59.75;102978.00;5087616;28;20037;-65
2022/04/16 02:15:09;;;;;;;19.55;16.92;;;;;;;10.57;59.93;102980.16;5070892;28;20027;-64
2022/04/16 02:17:38;;;;;;;20.98;17.67;;;;;;;10.60;59.94;102976.13;5074142;28;20483;-65
2022/04/16 02:20:17;;;;;;;19.80;17.67;;;;;;;10.56;59.89;102979.31;5071593;28;20043;-64
2022/04/16 02:22:45;;;;;;;20.90;17.73;;;;;;;10.48;60.15;102987.78;5073997;28;20111;-64
2022/04/16 02:25:13;;;;;;;19.85;17.65;;;;;;;10.42;60.18;102985.81;5090547;28;20028;-64
2022/04/16 02:27:38;;;;;;;23.90;17.80;;;;;;;10.39;60.46;102983.44;5087143;28;20111;-63
2022/04/16 02:30:08;;;;;;;21.77;17.92;;;;;;;10.37;60.61;102985.53;5072625;28;20170;-63
2022/04/16 02:32:43;;;;;;;22.55;18.08;;;;;;;10.31;60.82;102992.75;5078871;28;20043;-64
2022/04/16 02:35:10;;;;;;;22.67;18.73;;;;;;;10.29;60.51;102992.09;5094565;28;20032;-65
2022/04/16 02:37:36;;;;;;;22.10;18.55;;;;;;;10.27;60.79;102987.81;5093134;28;20024;-64
2022/04/16 02:40:03;;;;;;;22.08;18.02;;;;;;;10.27;60.88;102987.81;5074821;28;20468;-64
2022/04/16 02:42:28;;;;;;;22.70;18.42;;;;;;;10.34;60.68;102991.53;5077082;28;20115;-64
2022/04/16 02:47:55;;;;;;;22.65;19.05;;;;;;;10.35;60.61;102993.22;5039550;28;20067;-64
2022/04/16 02:50:24;;;;;;;21.52;18.92;;;;;;;10.29;60.69;102994.00;5069659;28;20036;-64
2022/04/16 02:52:50;;;;;;;22.23;18.33;;;;;;;10.29;60.67;102996.78;5084098;28;20024;-64
2022/04/16 02:55:15;;;;;;;21.95;18.45;;;;;;;10.23;61.14;103000.34;5074490;28;20369;-64
2022/04/16 02:57:44;;;;;;;21.63;18.58;;;;;;;10.26;60.86;102994.44;5088792;28;20115;-64
2022/04/16 03:00:11;;;;;;;21.63;18.30;;;;;;;10.28;60.78;102995.09;5093125;28;20052;-63
2022/04/16 03:02:37;;;;;;;25.23;19.05;;;;;;;10.28;60.81;103001.50;5073949;28;20118;-63
2022/04/16 03:05:06;;;;;;;21.13;17.95;;;;;;;10.22;60.95;103005.03;5079576;28;20422;-63
2022/04/16 03:07:32;;;;;;;22.00;19.52;;;;;;;10.24;60.79;103005.69;5087471;28;20064;-63
2022/04/16 03:09:57;;;;;;;20.58;18.38;;;;;;;10.30;60.71;103006.84;5093218;28;20024;-63
2022/04/16 03:12:23;;;;;;;21.63;18.33;;;;;;;10.28;60.61;103004.25;5087634;28;20046;-63
2022/04/16 03:17:32;;;;;;;23.75;18.75;;;;;;;10.23;60.80;103009.53;5086398;28;20035;-63
2022/04/16 03:19:58;;;;;;;23.17;18.42;;;;;;;10.18;60.93;103006.50;5088817;28;20035;-63
2022/04/16 03:22:23;;;;;;;23.00;19.38;;;;;;;10.12;60.89;103010.03;5090001;28;20028;-63
2022/04/16 03:24:49;;;;;;;22.52;19.15;;;;;;;10.15;61.27;103003.25;5091664;28;20039;-63
2022/04/16 03:27:16;;;;;;;22.63;18.25;;;;;;;10.14;61.03;103012.63;5093698;28;20027;-63
2022/04/16 03:29:41;;;;;;;23.23;19.25;;;;;;;10.13;61.06;103010.91;5093492;28;20059;-63
2022/04/16 03:32:07;;;;;;;23.42;19.42;;;;;;;10.13;60.75;103008.97;5088412;28;20111;-62
2022/04/16 03:34:32;;;;;;;21.88;19.55;;;;;;;10.06;60.89;103011.72;5093420;28;20028;-63
2022/04/16 03:36:58;;;;;;;21.55;19.25;;;;;;;10.07;60.71;103015.34;5092790;28;20024;-63
2022/04/16 03:39:24;;;;;;;25.55;19.73;;;;;;;10.07;61.23;103007.88;5093421;28;20394;-63
2022/04/16 03:41:49;;;;;;;25.17;19.15;;;;;;;10.09;61.16;103005.75;5092272;28;20027;-63
2022/04/16 03:44:14;;;;;;;22.55;18.48;;;;;;;10.06;60.95;103003.38;5093742;28;20028;-63
2022/04/16 03:46:40;;;;;;;22.02;19.42;;;;;;;10.02;61.13;103010.38;5090898;28;20024;-63
2022/04/16 03:49:05;;;;;;;23.90;20.00;;;;;;;10.06;61.24;103000.63;5073197;28;20097;-63
2022/04/16 03:51:36;;;;;;;24.50;19.77;;;;;;;10.06;61.02;103005.28;5087103;28;20028;-63
2022/04/16 04:02:14;;;;;;;23.70;19.48;;;;;;;9.79;61.54;103018.00;5082952;28;20494;-63
2022/04/16 04:04:40;;;;;;;24.88;21.08;;;;;;;9.80;61.71;103015.03;5073391;28;20029;-63
2022/04/16 04:07:05;;;;;;;26.83;19.30;;;;;;;9.66;61.54;103012.28;5079463;28;21056;-63
2022/04/16 04:09:31;;;;;;;23.40;20.30;;;;;;;9.61;61.73;103017.56;5093348;28;20034;-63
2022/04/16 04:11:57;;;;;;;24.30;20.13;;;;;;;9.65;61.75;103018.91;5085081;28;20095;-63
2022/04/16 04:14:22;;;;;;;23.60;20.30;;;;;;;9.62;62.05;103030.38;5072672;28;20032;-63
2022/04/16 04:16:53;;;;;;;25.08;20.10;;;;;;;9.59;61.99;103023.31;5079107;28;20097;-63
2022/04/16 04:19:19;;;;;;;23.23;20.42;;;;;;;9.65;62.14;103021.66;5091598;28;20043;-63
2022/04/16 04:21:44;;;;;;;24.70;20.85;;;;;;;9.62;62.03;103024.81;5090024;28;20039;-63
2022/04/16 04:24:09;;;;;;;25.75;21.00;;;;;;;9.63;62.15;103024.66;5092038;28;20035;-63
2022/04/16 04:26:35;;;;;;;27.13;21.42;;;;;;;9.61;62.17;103034.19;5090590;28;20031;-62
2022/04/16 04:29:00;;;;;;;26.08;20.90;;;;;;;9.51;62.34;103032.59;5074452;28;20035;-63
2022/04/16 04:31:25;;;;;;;28.25;21.35;;;;;;;9.50;62.50;103033.63;5073233;28;20484;-63
2022/04/16 04:33:50;;;;;;;26.20;21.50;;;;;;;9.49;62.39;103040.22;5071966;28;20357;-63
2022/04/16 04:36:16;;;;;;;25.98;21.45;;;;;;;9.47;62.19;103039.59;5074176;28;20028;-63
2022/04/16 04:38:41;;;;;;;27.25;21.80;;;;;;;9.51;62.71;103040.03;5072480;28;20439;-63
2022/04/16 04:41:07;;;;;;;27.33;20.88;;;;;;;9.47;62.84;103034.03;5078953;28;20146;-63
2022/04/16 04:43:32;;;;;;;24.13;21.10;;;;;;;9.50;62.47;103049.41;5091066;28;20468;-63
2022/04/16 04:45:58;;;;;;;27.50;21.88;;;;;;;9.46;62.70;103046.16;5079362;28;20077;-62
2022/04/16 04:48:23;;;;;;;29.23;22.55;;;;;;;9.39;62.44;103056.28;5092010;28;20066;-62
2022/04/16 04:50:51;;;;;;;28.17;21.13;;;;;;;9.44;62.53;103055.72;5092532;28;20027;-63
2022/04/16 04:53:18;;;;;;;25.92;22.13;;;;;;;9.40;62.96;103059.94;5081459;28;20036;-62
2022/04/16 04:55:44;;;;;;;27.80;22.08;;;;;;;9.41;62.30;103054.19;5077285;28;20028;-62
2022/04/16 04:58:09;;;;;;;26.20;21.38;;;;;;;9.49;62.82;103059.63;5085618;28;20097;-62
2022/04/16 05:00:34;;;;;;;31.17;22.75;;;;;;;9.45;62.45;103060.22;5083721;28;20035;-62
2022/04/16 05:03:00;;;;;;;26.60;21.70;;;;;;;9.40;62.67;103069.13;5083679;28;20024;-64
2022/04/16 05:05:28;;;;;;;26.38;21.55;;;;;;;9.36;63.36;103072.47;5090595;28;20095;-62
2022/04/16 05:07:53;;;;;;;27.67;23.05;;;;;;;9.34;63.17;103067.09;5090871;28;20078;-63
2022/04/16 05:10:19;;;;;;;27.80;22.40;;;;;;;9.42;62.94;103069.75;5090828;28;20048;-63
2022/04/16 05:12:44;;;;;;;29.73;22.92;;;;;;;9.43;63.10;103079.81;5090875;28;20032;-63
2022/04/16 05:15:09;;;;;;;29.15;22.70;;;;;;;9.45;62.88;103079.63;5076938;28;20030;-63
2022/04/16 05:17:38;;;;;;;27.55;22.67;;;;;;;9.46;62.97;103078.56;5084241;28;20369;-64
2022/04/16 05:20:08;;;;;;;30.50;23.23;;;;;;;9.49;63.09;103067.94;5079045;28;20027;-65
2022/04/16 05:22:33;;;;;;;26.58;23.25;;;;;;;9.51;63.08;103076.06;5090076;28;20036;-64
2022/04/16 05:24:58;;;;;;;27.00;23.25;;;;;;;9.52;62.77;103075.03;5077062;28;20544;-64
2022/04/16 05:27:25;;;;;;;29.50;22.40;;;;;;;9.54;62.37;103073.78;5089536;28;20048;-62
2022/04/16 05:30:02;;;;;;;33.10;24.15;;;;;;;9.48;63.38;103088.41;5091983;28;20380;-63
2022/04/16 05:32:42;;;;;;;30.30;23.55;;;;;;;9.52;63.21;103092.53;5089254;28;20533;-64
2022/04/16 05:35:09;;;;;;;30.13;23.95;;;;;;;9.53;63.13;103096.16;5073297;28;20525;-62
2022/04/16 05:37:35;;;;;;;28.65;23.65;;;;;;;9.50;62.77;103094.63;5073024;28;20036;-63
2022/04/16 05:40:00;;;;;;;31.83;23.85;;;;;;;9.53;63.25;103094.25;5072580;28;20127;-63
2022/04/16 05:42:26;;;;;;;33.00;24.10;;;;;;;9.50;63.05;103080.75;5090831;28;20395;-63
2022/04/16 05:45:02;;;;;;;33.63;24.52;;;;;;;9.56;63.42;103091.09;5091232;28;20025;-63
2022/04/16 05:47:30;;;;;;;29.25;24.23;;;;;;;9.56;63.51;103091.09;5075570;28;20055;-63
2022/04/16 05:49:55;;;;;;;31.65;24.15;;;;;;;9.61;63.38;103084.09;5082677;28;20028;-62
2022/04/16 05:52:22;;;;;;;31.17;24.67;;;;;;;9.61;63.77;103098.81;5085712;28;20027;-62
2022/04/16 05:54:47;;;;;;;30.13;24.25;;;;;;;9.63;63.74;103101.41;5088814;28;20060;-63
2022/04/16 05:57:13;;;;;;;32.70;25.65;;;;;;;9.68;63.67;103101.69;5087139;28;20058;-63
2022/04/16 05:59:38;;;;;;;31.55;24.98;;;;;;;9.70;63.83;103100.44;5085899;28;20518;-63
2022/04/16 06:02:04;;;;;;;31.77;25.65;;;;;;;9.73;63.14;103105.59;5091306;28;20058;-63
2022/04/16 06:04:30;;;;;;;29.98;25.83;;;;;;;9.75;64.15;103108.19;5091768;28;20032;-63
2022/04/16 06:06:55;;;;;;;32.35;25.10;;;;;;;9.74;64.05;103112.88;5093922;28;20034;-63
2022/04/16 06:09:20;;;;;;;34.22;25.38;;;;;;;9.79;64.04;103121.50;5095692;28;20028;-63
2022/04/16 06:11:48;;;;;;;32.55;26.05;;;;;;;9.82;63.91;103123.00;5086671;28;20020;-62
2022/04/16 06:14:14;;;;;;;32.25;25.83;;;;;;;9.77;64.44;103119.94;5094842;28;20035;-63
2022/04/16 06:16:39;;;;;;;38.38;26.30;;;;;;;9.84;64.31;103124.53;5095358;28;20389;-63
2022/04/16 06:19:04;;;;;;;30.55;26.58;;;;;;;9.92;63.99;103126.34;5095307;28;20406;-63
2022/04/16 06:21:29;;;;;;;31.70;26.63;;;;;;;9.99;64.11;103132.84;5094630;28;20028;-63
2022/04/16 06:23:55;;;;;;;34.13;27.00;;;;;;;10.05;64.09;103132.06;5095161;28;20032;-62
2022/04/16 06:26:23;;;;;;;36.60;27.30;;;;;;;10.12;64.06;103136.84;5076323;28;20093;-62
2022/04/16 06:28:48;;;;;;;33.92;27.38;;;;;;;10.15;64.13;103133.69;5074735;28;20042;-63
2022/04/16 06:31:13;;;;;;;34.15;27.23;;;;;;;10.22;63.97;103134.63;5074740;28;20111;-63
2022/04/16 06:33:39;;;;;;;36.88;28.90;;;;;;;10.28;64.14;103136.63;5074235;28;20431;-63
2022/04/16 06:36:04;;;;;;;32.92;27.00;;;;;;;10.35;64.04;103132.03;5074826;28;20028;-62
2022/04/16 06:38:29;;;;;;;36.45;28.65;;;;;;;10.38;63.98;103134.41;5074850;28;20411;-62
2022/04/16 06:40:55;;;;;;;35.70;28.45;;;;;;;10.41;64.59;103134.00;5084761;28;20058;-62
2022/04/16 06:43:20;;;;;;;33.60;28.35;;;;;;;10.50;64.68;103123.66;5095059;28;20035;-62
2022/04/16 06:45:45;;;;;;;35.55;27.52;;;;;;;10.59;64.35;103138.28;5094975;28;20048;-62
2022/04/16 06:48:11;;;;;;;35.63;28.85;;;;;;;10.66;63.90;103137.28;5093341;28;20040;-62
2022/04/16 06:50:36;;;;;;;39.83;29.02;;;;;;;10.66;64.37;103140.06;5094862;28;20538;-62
2022/04/16 06:53:01;;;;;;;39.38;29.30;;;;;;;10.70;64.77;103140.53;5094000;28;20047;-63
2022/04/16 06:55:26;;;;;;;39.35;29.58;;;;;;;10.76;64.27;103139.72;5094252;28;20103;-63
2022/04/16 06:57:52;;;;;;;38.05;30.33;;;;;;;10.74;64.56;103137.16;5093431;28;20055;-62
2022/04/16 07:00:17;;;;;;;37.78;29.98;;;;;;;10.82;64.53;103136.16;5092503;28;20468;-62
2022/04/16 07:02:42;;;;;;;38.17;29.23;;;;;;;10.89;64.36;103133.44;5082986;28;20115;-62
2022/04/16 07:05:08;;;;;;;39.47;30.10;;;;;;;10.98;64.92;103143.34;5083660;28;20186;-62
2022/04/16 07:07:34;;;;;;;39.92;30.30;;;;;;;11.07;64.41;103136.59;5089162;28;20031;-62
2022/04/16 07:10:02;;;;;;;38.75;29.70;;;;;;;11.18;64.18;103151.88;5088993;28;20031;-62
2022/04/16 07:12:28;;;;;;;38.05;29.70;;;;;;;11.15;63.37;103139.22;5093445;28;20028;-62
2022/04/16 07:14:57;;;;;;;38.70;29.55;;;;;;;11.22;63.15;103147.63;5092919;28;20486;-62
2022/04/16 07:17:22;;;;;;;37.35;27.98;;;;;;;11.31;63.53;103136.13;5083922;28;20093;-62
2022/04/16 07:19:48;;;;;;;38.40;29.10;;;;;;;11.41;63.38;103143.28;5101098;28;20126;-62
2022/04/16 07:22:13;;;;;;;37.58;28.80;;;;;;;11.47;62.41;103143.31;5092607;28;20027;-62
2022/04/16 07:24:41;;;;;;;36.67;27.80;;;;;;;11.52;62.57;103139.94;5091987;28;20041;-64
2022/04/16 07:27:07;;;;;;;35.78;27.20;;;;;;;11.64;62.76;103143.00;5093085;28;20030;-63
2022/04/16 07:29:32;;;;;;;35.30;28.02;;;;;;;11.74;62.32;103146.25;5092949;28;20111;-62
2022/04/16 07:31:57;;;;;;;34.05;27.33;;;;;;;11.78;61.50;103142.84;5091928;28;20032;-64
2022/04/16 07:34:24;;;;;;;33.40;26.80;;;;;;;11.79;61.54;103152.09;5092170;28;20123;-62
2022/04/16 07:36:50;;;;;;;36.88;26.60;;;;;;;11.88;61.79;103145.31;5091926;28;20436;-63
2022/04/16 07:39:16;;;;;;;37.13;27.50;;;;;;;11.97;61.34;103141.28;5092774;28;20040;-63
2022/04/16 07:41:41;;;;;;;36.03;27.30;;;;;;;12.01;61.11;103153.72;5093100;28;20498;-63
2022/04/16 07:44:07;;;;;;;35.97;27.90;;;;;;;12.07;61.06;103152.06;5092065;28;20016;-64
2022/04/16 07:46:33;;;;;;;35.10;27.20;;;;;;;12.11;60.69;103153.34;5092779;28;20421;-62
2022/04/16 07:48:59;;;;;;;34.97;26.70;;;;;;;12.20;60.90;103151.25;5092611;28;20070;-63
2022/04/16 07:51:26;;;;;;;32.50;26.17;;;;;;;12.27;60.96;103155.78;5092171;28;20078;-62
2022/04/16 07:53:52;;;;;;;36.65;26.95;;;;;;;12.36;61.03;103153.66;5092843;28;20028;-62
2022/04/16 07:56:18;;;;;;;32.38;26.35;;;;;;;12.44;60.68;103152.63;5092785;28;20016;-62
2022/04/16 07:58:43;;;;;;;35.15;26.50;;;;;;;12.52;60.39;103147.69;5056506;28;1014237;-62
2022/04/16 08:01:09;;;;;;;31.35;25.05;;;;;;;12.61;59.99;103158.66;5090900;28;20032;-62
2022/04/16 08:03:34;;;;;;;34.15;25.20;;;;;;;12.69;60.06;103153.75;5089515;28;20390;-62
2022/04/16 08:06:03;;;;;;;30.15;24.83;;;;;;;12.83;59.54;103156.56;5088324;28;20031;-63
2022/04/16 08:08:28;;;;;;;31.15;24.77;;;;;;;12.81;58.60;103151.22;5088436;28;20028;-62
2022/04/16 08:10:53;;;;;;;31.60;24.35;;;;;;;12.86;58.61;103158.94;5089328;28;20035;-63
2022/04/16 08:13:20;;;;;;;28.25;22.55;;;;;;;12.91;58.37;103156.34;5089248;28;20536;-63
2022/04/16 08:15:46;;;;;;;32.28;25.45;;;;;;;13.02;58.73;103152.94;5091871;28;20028;-63
2022/04/16 08:18:12;;;;;;;33.10;24.67;;;;;;;13.11;58.46;103150.78;5091730;28;20028;-61
2022/04/16 08:20:37;;;;;;;31.10;23.63;;;;;;;13.17;57.81;103159.16;5092306;28;20088;-63
2022/04/16 08:23:06;;;;;;;27.73;23.55;;;;;;;13.17;58.01;103153.59;5092918;28;20032;-63
2022/04/16 08:28:02;;;;;;;27.90;23.08;;;;;;;13.25;57.14;103152.56;5091034;28;20122;-63
2022/04/16 08:30:28;;;;;;;30.02;23.05;;;;;;;13.29;56.99;103158.56;5093252;28;20028;-63
2022/04/16 08:32:53;;;;;;;27.85;22.95;;;;;;;13.29;57.16;103159.41;5091788;28;20344;-63
2022/04/16 08:35:19;;;;;;;30.63;23.13;;;;;;;13.38;56.65;103165.63;5090112;28;20039;-64
2022/04/16 08:37:47;;;;;;;26.27;21.67;;;;;;;13.46;56.24;103169.03;5091656;28;20032;-63
2022/04/16 08:40:14;;;;;;;28.77;22.20;;;;;;;13.53;56.23;103165.41;5090066;28;20051;-61
2022/04/16 08:42:41;;;;;;;25.83;21.08;;;;;;;13.56;56.04;103164.94;5091720;28;20027;-62
2022/04/16 08:45:09;;;;;;;29.17;22.20;;;;;;;13.67;56.59;103161.50;5091714;28;20024;-62
2022/04/16 08:47:35;;;;;;;28.63;21.90;;;;;;;13.81;56.31;103170.72;5091211;28;20062;-61
2022/04/16 08:50:02;;;;;;;27.25;21.13;;;;;;;13.88;55.93;103163.19;5089478;28;20036;-61
2022/04/16 08:52:30;;;;;;;25.48;21.35;;;;;;;13.92;55.17;103165.31;5087977;28;20036;-62
2022/04/16 08:54:57;;;;;;;23.98;19.98;;;;;;;13.97;54.58;103162.72;5086477;28;20028;-61
2022/04/16 08:57:22;;;;;;;24.45;19.60;;;;;;;14.09;54.27;103165.69;5091930;28;20028;-61
2022/04/16 08:59:50;;;;;;;23.95;19.25;;;;;;;14.13;54.06;103166.09;5092035;28;20055;-61
2022/04/16 09:02:15;;;;;;;23.48;19.60;;;;;;;14.28;53.93;103163.91;5091695;28;20032;-61
2022/04/16 09:04:41;;;;;;;21.60;17.75;;;;;;;14.37;53.76;103156.09;5079611;28;20089;-61
2022/04/16 09:07:06;;;;;;;22.50;17.83;;;;;;;14.40;52.39;103155.66;5072481;28;20028;-61
2022/04/16 09:09:34;;;;;;;22.63;17.85;;;;;;;14.51;52.72;103159.75;5071915;28;20090;-61
2022/04/16 09:11:59;;;;;;;24.95;18.88;;;;;;;14.55;52.56;103159.06;5091696;28;20383;-62
2022/04/16 09:14:42;;;;;;;23.30;18.27;;;;;;;14.63;53.13;103152.34;5099318;28;20016;-62
2022/04/16 09:17:09;;;;;;;21.88;17.17;;;;;;;14.73;52.63;103161.09;5096198;28;20028;-62
2022/04/16 09:19:34;;;;;;;20.77;17.48;;;;;;;14.65;51.69;103165.00;5091376;28;20440;-62
2022/04/16 09:22:02;;;;;;;22.70;16.80;;;;;;;14.64;51.50;103156.84;5097835;28;20074;-63
2022/04/16 09:24:27;;;;;;;19.23;15.82;;;;;;;14.73;51.23;103149.91;5106745;28;20054;-62
2022/04/16 09:26:53;;;;;;;18.25;14.70;;;;;;;14.78;49.60;103152.91;5100567;28;20039;-62
2022/04/16 09:29:19;;;;;;;16.70;13.70;;;;;;;14.72;49.48;103140.66;5096359;28;20035;-62
2022/04/16 09:31:46;;;;;;;15.85;12.82;;;;;;;14.67;48.56;103153.63;5092749;28;20031;-60
2022/04/16 09:34:19;;;;;;;18.45;14.02;;;;;;;14.58;49.51;103150.25;5087513;28;20107;-61
2022/04/16 09:36:46;;;;;;;15.30;13.48;;;;;;;14.55;48.97;103153.47;5079258;28;20024;-62
2022/04/16 09:39:13;;;;;;;12.43;10.85;;;;;;;14.76;50.75;103151.41;5088196;28;20498;-62
2022/04/16 09:41:40;;;;;;;18.00;14.30;;;;;;;14.68;49.72;103153.38;5086006;28;20043;-63
2022/04/16 09:44:22;;;;;;;16.73;14.00;;;;;;;14.63;49.99;103143.97;5083577;28;20028;-60
2022/04/16 09:46:49;;;;;;;16.35;13.65;;;;;;;14.58;49.90;103141.84;5090482;28;20498;-61
2022/04/16 09:49:16;;;;;;;14.73;12.20;;;;;;;14.56;48.53;103145.94;5095104;28;20024;-62
2022/04/16 09:51:44;;;;;;;14.07;11.30;;;;;;;14.49;47.92;103132.84;5088823;28;20391;-62
2022/04/16 09:54:10;;;;;;;17.73;10.52;;;;;;;14.45;48.05;103142.72;5088749;28;20542;-62
2022/04/16 09:56:37;;;;;;;15.77;11.18;;;;;;;14.45;48.13;103139.94;5093321;28;20081;-62
2022/04/16 09:59:06;;;;;;;14.38;10.77;;;;;;;14.58;48.32;103141.84;5082472;28;20044;-62
2022/04/16 10:01:33;;;;;;;13.48;10.68;;;;;;;14.61;48.45;103135.78;5088228;28;20532;-61
2022/04/16 10:04:00;;;;;;;12.15;10.73;;;;;;;14.52;47.29;103147.47;5089477;28;20036;-61
2022/04/16 10:06:30;;;;;;;10.02;7.22;;;;;;;14.82;51.76;103134.59;5088560;28;20044;-62
2022/04/16 10:08:57;;;;;;;8.50;7.65;;;;;;;15.00;49.76;103133.78;5099125;28;20032;-63
2022/04/16 10:14:37;;;;;;;8.75;7.85;;;;;;;15.31;48.24;103135.69;5091534;28;20082;-63
2022/04/16 10:17:07;;;;;;;8.50;6.72;;;;;;;15.58;46.96;103130.69;5102967;28;20467;-63
2022/04/16 10:19:40;;;;;;;8.60;7.70;;;;;;;15.67;46.84;103128.47;5072497;28;20043;-63
2022/04/16 10:22:05;;;;;;;7.93;6.38;;;;;;;15.81;46.70;103132.84;5084675;28;20044;-61
2022/04/16 10:24:31;;;;;;;10.48;8.38;;;;;;;15.76;45.61;103124.28;5087226;28;20082;-63
2022/04/16 10:27:04;;;;;;;7.65;6.85;;;;;;;15.84;45.17;103129.56;5088653;28;20024;-64
2022/04/16 10:29:37;;;;;;;7.00;6.30;;;;;;;15.89;45.05;103131.69;5087963;28;20032;-63
2022/04/16 10:32:16;;;;;;;8.43;6.40;;;;;;;15.75;43.87;103135.69;5082991;28;20458;-62
2022/04/16 10:34:42;;;;;;;5.45;4.88;;;;;;;15.86;43.98;103132.97;5084101;28;20063;-62
2022/04/16 10:37:19;;;;;;;5.72;4.88;;;;;;;16.04;45.33;103131.28;5083114;28;20032;-63
2022/04/16 10:39:46;;;;;;;6.60;5.10;;;;;;;16.29;44.60;103131.16;5083339;28;20499;-64
2022/04/16 10:42:11;;;;;;;5.88;4.97;;;;;;;16.43;42.79;103136.38;5083571;28;20496;-63
2022/04/16 10:44:45;;;;;;;6.90;4.78;;;;;;;16.53;43.11;103129.31;5087069;28;20081;-64
2022/04/16 10:47:13;;;;;;;6.00;4.50;;;;;;;16.67;42.85;103130.84;5082951;28;20392;-64
2022/04/16 10:49:41;;;;;;;4.82;3.72;;;;;;;16.91;42.72;103129.00;5084431;28;20458;-64
2022/04/16 10:52:17;;;;;;;5.00;4.10;;;;;;;17.09;42.24;103131.69;5088498;28;20048;-64
2022/04/16 10:54:43;;;;;;;6.25;4.68;;;;;;;17.03;39.54;103120.59;5084029;28;20031;-64
2022/04/16 10:57:19;;;;;;;5.20;4.25;;;;;;;17.20;41.44;103141.22;5084521;28;20086;-63
2022/04/16 10:59:45;;;;;;;4.60;3.80;;;;;;;17.28;40.82;103131.59;5089428;28;20071;-64
2022/04/16 11:02:27;;;;;;;4.43;4.03;;;;;;;17.30;40.80;103127.47;5087415;28;20074;-65
2022/04/16 11:05:03;;;;;;;4.75;3.58;;;;;;;17.50;40.42;103117.81;5087616;28;20098;-64
2022/04/16 11:07:30;;;;;;;6.63;4.90;;;;;;;17.39;40.74;103119.53;5084304;28;20514;-64
2022/04/16 11:09:56;;;;;;;7.75;5.43;;;;;;;17.29;39.58;103120.16;5089450;28;20034;-64
2022/04/16 11:12:23;;;;;;;4.47;3.72;;;;;;;17.49;40.47;103127.31;5090217;28;20253;-64
2022/04/16 11:14:50;;;;;;;5.32;4.82;;;;;;;17.45;38.91;103117.69;5089943;28;20391;-63
2022/04/16 11:17:15;;;;;;;4.28;3.88;;;;;;;17.57;40.51;103129.78;5093248;28;20036;-64
2022/04/16 11:19:48;;;;;;;4.88;4.28;;;;;;;17.57;39.51;103119.41;5095262;28;20020;-64
2022/04/16 11:22:14;;;;;;;4.15;3.67;;;;;;;17.70;38.58;103121.09;5091767;28;20441;-64
2022/04/16 11:24:40;;;;;;;6.38;5.28;;;;;;;17.57;38.74;103116.59;5101879;28;20026;-63
2022/04/16 11:35:31;;;;;;;5.55;4.88;;;;;;;17.89;39.09;103108.66;5065997;28;20205;-64
2022/04/16 11:37:56;;;;;;;6.93;6.22;;;;;;;17.82;38.54;103107.91;5099059;28;20527;-64